Time;durP1;ratioP1;P1;durP2;ratioP2;P2;SDS_P1;SDS_P2;PMS_P1;PMS_P2;Temp;Humidity;BMP_temperature;BMP_pressure;BME280_temperature;BME280_humidity;BME280_pressure;Samples;Min_cycle;Max_cycle;Signal;HPM_P1;HPM_P2
2022/11/06 00:02:16;;;;;;;12.27;6.68;;;10.30;99.90;;;;;;5065757;28;20117;-72
2022/11/06 00:04:41;;;;;;;18.83;7.43;;;10.30;99.90;;;;;;5060080;28;20045;-72
2022/11/06 00:07:07;;;;;;;14.20;7.25;;;10.20;99.90;;;;;;5058422;28;20045;-72
2022/11/06 00:09:33;;;;;;;18.20;8.35;;;10.30;99.90;;;;;;5064532;28;20068;-72
2022/11/06 00:11:59;;;;;;;16.23;7.47;;;10.10;99.90;;;;;;5045212;28;20658;-72
2022/11/06 00:14:25;;;;;;;14.90;7.50;;;10.20;99.90;;;;;;5041185;28;20346;-72
2022/11/06 00:17:13;;;;;;;12.65;7.10;;;10.30;99.90;;;;;;5075113;28;20072;-72
2022/11/06 00:19:42;;;;;;;18.00;7.05;;;10.20;99.90;;;;;;5049037;28;20380;-72
2022/11/06 00:22:10;;;;;;;12.68;7.00;;;10.30;99.90;;;;;;5040290;28;20040;-73
2022/11/06 00:24:36;;;;;;;14.05;6.75;;;10.20;99.90;;;;;;5060960;28;20044;-73
2022/11/06 00:27:01;;;;;;;11.57;6.68;;;10.20;99.90;;;;;;5055995;28;20176;-73
2022/11/06 00:29:27;;;;;;;15.55;6.55;;;10.20;99.90;;;;;;5057999;28;20132;-73
2022/11/06 00:31:53;;;;;;;15.52;7.25;;;10.20;99.90;;;;;;5057705;28;20068;-72
2022/11/06 00:34:21;;;;;;;10.95;6.47;;;10.30;99.90;;;;;;5066700;28;20403;-72
2022/11/06 00:36:46;;;;;;;15.75;6.82;;;10.20;99.90;;;;;;5060010;28;20044;-72
2022/11/06 00:39:12;;;;;;;13.80;6.70;;;10.30;99.90;;;;;;5055864;28;20499;-72
2022/11/06 00:41:37;;;;;;;12.05;6.95;;;10.30;99.90;;;;;;5064919;28;20119;-72
2022/11/06 00:44:03;;;;;;;11.90;6.78;;;10.30;99.90;;;;;;5055431;28;20118;-72
2022/11/06 00:46:30;;;;;;;17.02;6.13;;;10.30;99.90;;;;;;5061953;28;20045;-72
2022/11/06 00:48:55;;;;;;;15.15;6.90;;;10.30;99.90;;;;;;5063080;28;20446;-72
2022/11/06 00:51:28;;;;;;;12.40;6.07;;;10.30;99.90;;;;;;5060035;28;20040;-72
2022/11/06 00:53:55;;;;;;;11.80;6.33;;;10.30;99.90;;;;;;5064986;28;20640;-72
2022/11/06 00:56:22;;;;;;;13.20;6.70;;;10.30;99.90;;;;;;5052123;28;20287;-72
2022/11/06 00:58:48;;;;;;;12.95;6.30;;;10.40;99.90;;;;;;5064145;28;20048;-71
2022/11/06 01:01:27;;;;;;;11.55;6.93;;;10.40;99.90;;;;;;5061695;28;20499;-72
2022/11/06 01:03:57;;;;;;;16.80;8.13;;;10.30;99.90;;;;;;5061099;28;20048;-71
2022/11/06 01:06:26;;;;;;;9.93;6.60;;;10.30;99.90;;;;;;5060189;28;20044;-72
2022/11/06 01:08:52;;;;;;;13.23;7.57;;;10.40;99.90;;;;;;5061560;28;20121;-72
2022/11/06 01:11:24;;;;;;;13.63;6.97;;;10.30;99.90;;;;;;5063431;28;20182;-72
2022/11/06 01:13:54;;;;;;;13.65;7.20;;;10.40;99.90;;;;;;5065571;28;20041;-72
2022/11/06 01:16:21;;;;;;;13.23;6.95;;;10.40;99.90;;;;;;5057405;28;22034;-73
2022/11/06 01:18:47;;;;;;;13.23;6.68;;;10.40;99.90;;;;;;5062892;28;20032;-72
2022/11/06 01:21:20;;;;;;;16.30;6.85;;;10.40;99.90;;;;;;5057475;28;20083;-72
2022/11/06 01:23:46;;;;;;;10.70;6.83;;;10.40;99.90;;;;;;5059212;28;20048;-72
2022/11/06 01:26:13;;;;;;;14.18;7.70;;;10.30;99.90;;;;;;5058829;28;20291;-72
2022/11/06 01:28:40;;;;;;;14.55;6.93;;;10.40;99.90;;;;;;5061781;28;20040;-73
2022/11/06 01:31:11;;;;;;;15.80;7.55;;;10.40;99.90;;;;;;5058962;28;20052;-72
2022/11/06 01:33:38;;;;;;;15.32;7.97;;;10.30;99.90;;;;;;5063672;28;20079;-72
2022/11/06 01:36:04;;;;;;;14.82;7.15;;;10.40;99.90;;;;;;5057077;28;20056;-72
2022/11/06 01:38:30;;;;;;;18.80;7.50;;;10.40;99.90;;;;;;5059668;28;20075;-72
2022/11/06 01:40:56;;;;;;;17.70;7.20;;;10.40;99.90;;;;;;5064325;28;20076;-72
2022/11/06 01:44:00;;;;;;;14.52;7.65;;;10.40;99.90;;;;;;5062480;28;20040;-72
2022/11/06 01:46:30;;;;;;;;;;;10.40;99.90;;;;;;5057610;28;20155;-72
2022/11/06 01:49:13;;;;;;;15.82;8.18;;;10.40;99.90;;;;;;5063076;28;19955;-72
2022/11/06 01:51:52;;;;;;;15.65;8.00;;;10.40;99.90;;;;;;5062891;28;20131;-73
2022/11/06 01:54:24;;;;;;;15.05;8.55;;;10.40;99.90;;;;;;5060984;28;20212;-73
2022/11/06 01:56:56;;;;;;;10.95;9.07;;;10.40;99.90;;;;;;5062401;28;20037;-73
2022/11/06 01:59:26;;;;;;;17.58;9.45;;;10.40;99.90;;;;;;5061366;28;20426;-72
2022/11/06 02:01:52;;;;;;;17.17;8.57;;;10.40;99.90;;;;;;5061201;28;20040;-73
2022/11/06 02:04:28;;;;;;;17.08;8.85;;;10.40;99.90;;;;;;5056856;28;20076;-73
2022/11/06 02:06:56;;;;;;;20.58;8.88;;;10.30;99.90;;;;;;5059634;28;20048;-72
2022/11/06 02:09:24;;;;;;;17.23;9.20;;;10.40;99.90;;;;;;5060410;28;20071;-72
2022/11/06 02:12:12;;;;;;;15.32;9.23;;;10.40;99.90;;;;;;5064250;28;20484;-72
2022/11/06 02:15:05;;;;;;;16.15;9.63;;;10.40;99.90;;;;;;5060829;28;20064;-72
2022/11/06 02:18:10;;;;;;;15.27;8.85;;;10.40;99.90;;;;;;5056646;28;20283;-72
2022/11/06 02:20:56;;;;;;;17.85;10.13;;;10.30;99.90;;;;;;5063712;28;20473;-72
2022/11/06 02:23:34;;;;;;;17.13;9.18;;;10.30;99.90;;;;;;5058249;28;20076;-72
2022/11/06 02:26:23;;;;;;;16.48;10.30;;;10.30;99.90;;;;;;5064692;28;20087;-72
2022/11/06 02:29:13;;;;;;;16.77;9.50;;;10.40;99.90;;;;;;5063974;28;20107;-71
2022/11/06 02:31:42;;;;;;;17.77;10.77;;;10.40;99.90;;;;;;5070380;28;20047;-72
2022/11/06 02:34:13;;;;;;;27.83;11.20;;;10.40;99.90;;;;;;5061973;28;20675;-73
2022/11/06 02:36:46;;;;;;;17.02;9.98;;;10.40;99.90;;;;;;5065115;28;20054;-72
2022/11/06 02:39:14;;;;;;;;;;;10.40;99.90;;;;;;5062610;28;20047;-72
2022/11/06 02:41:44;;;;;;;17.33;9.77;;;10.50;99.90;;;;;;5057757;28;20117;-72
2022/11/06 02:44:16;;;;;;;17.25;10.63;;;10.40;99.90;;;;;;5060859;28;20045;-72
2022/11/06 02:46:54;;;;;;;17.43;9.53;;;10.40;99.90;;;;;;5066233;28;20526;-72
2022/11/06 02:49:41;;;;;;;17.23;10.00;;;10.50;99.90;;;;;;5062503;28;20097;-72
2022/11/06 02:52:43;;;;;;;16.42;9.98;;;10.50;99.90;;;;;;5055228;28;20104;-72
2022/11/06 02:55:17;;;;;;;15.60;10.65;;;10.50;99.90;;;;;;5057802;28;20040;-72
2022/11/06 02:57:52;;;;;;;15.82;9.93;;;10.40;99.90;;;;;;5062912;28;20071;-73
2022/11/06 03:00:18;;;;;;;14.32;9.00;;;10.50;99.90;;;;;;5063133;28;20522;-72
2022/11/06 03:02:59;;;;;;;16.88;10.70;;;10.50;99.90;;;;;;5064348;28;20128;-72
2022/11/06 03:05:35;;;;;;;22.23;10.10;;;10.50;99.90;;;;;;5065406;28;20033;-72
2022/11/06 03:08:04;;;;;;;17.83;10.75;;;10.40;99.90;;;;;;5057921;28;20581;-72
2022/11/06 03:10:36;;;;;;;22.08;10.63;;;10.50;99.90;;;;;;5062548;28;20040;-72
2022/11/06 03:13:38;;;;;;;20.15;10.52;;;10.50;99.90;;;;;;5064330;28;20029;-71
2022/11/06 03:16:15;;;;;;;20.45;10.10;;;10.50;99.90;;;;;;5063713;28;20049;-72
2022/11/06 03:19:01;;;;;;;19.88;10.52;;;10.50;99.90;;;;;;5060769;28;20052;-70
2022/11/06 03:22:10;;;;;;;14.50;9.68;;;10.40;99.90;;;;;;5062302;28;20044;-72
2022/11/06 03:24:58;;;;;;;15.85;10.00;;;10.50;99.90;;;;;;5059959;28;20505;-72
2022/11/06 03:28:02;;;;;;;20.65;10.50;;;10.50;99.90;;;;;;5062565;28;21752;-72
2022/11/06 03:30:29;;;;;;;13.77;9.15;;;10.50;99.90;;;;;;5043777;28;20045;-71
2022/11/06 03:33:07;;;;;;;16.17;10.15;;;10.40;99.90;;;;;;5057467;28;20538;-72
2022/11/06 03:35:43;;;;;;;17.75;10.57;;;10.40;99.90;;;;;;5065435;28;20412;-72
2022/11/06 03:38:18;;;;;;;16.08;9.65;;;10.50;99.90;;;;;;5063167;28;20041;-72
2022/11/06 03:40:48;;;;;;;16.42;9.82;;;10.40;99.90;;;;;;5054482;28;20045;-72
2022/11/06 03:43:16;;;;;;;14.48;9.50;;;10.40;99.90;;;;;;5057497;28;21184;-73
2022/11/06 03:45:44;;;;;;;19.02;10.75;;;10.50;99.90;;;;;;5062644;28;20988;-72
2022/11/06 03:48:18;;;;;;;17.95;10.10;;;10.50;99.90;;;;;;5066770;28;20067;-73
2022/11/06 03:50:57;;;;;;;15.02;10.05;;;10.50;99.90;;;;;;5064135;28;20534;-72
2022/11/06 03:53:35;;;;;;;16.58;10.40;;;10.50;99.90;;;;;;5062948;28;20048;-72
2022/11/06 03:56:14;;;;;;;15.38;10.27;;;10.50;99.90;;;;;;5062980;28;20045;-72
2022/11/06 03:58:45;;;;;;;17.55;11.23;;;10.40;99.90;;;;;;5063586;28;20112;-72
2022/11/06 04:01:14;;;;;;;18.08;10.25;;;10.50;99.90;;;;;;5054295;28;20040;-72
2022/11/06 04:03:55;;;;;;;18.90;10.45;;;10.40;99.90;;;;;;5067111;28;20492;-73
2022/11/06 04:06:27;;;;;;;19.65;10.80;;;10.40;99.90;;;;;;5063382;28;20451;-72
2022/11/06 04:14:30;;;;;;;15.25;9.95;;;10.50;99.90;;;;;;5061025;28;20045;-72
2022/11/06 04:17:01;;;;;;;15.45;9.38;;;10.50;99.90;;;;;;5063740;28;20048;-73
2022/11/06 04:19:26;;;;;;;19.38;11.35;;;10.50;99.90;;;;;;5066072;28;20516;-72
2022/11/06 04:22:23;;;;;;;15.07;9.23;;;10.50;99.90;;;;;;5062165;28;20068;-72
2022/11/06 04:27:45;;;;;;;18.40;10.77;;;10.50;99.90;;;;;;5060767;28;20048;-72
2022/11/06 04:30:13;;;;;;;16.45;9.65;;;10.50;99.90;;;;;;5057037;28;20504;-73
2022/11/06 04:33:04;;;;;;;13.82;10.40;;;10.40;99.90;;;;;;5063172;28;20041;-73
2022/11/06 04:35:35;;;;;;;18.27;10.02;;;10.50;99.90;;;;;;5064033;28;20059;-72
2022/11/06 04:38:03;;;;;;;17.20;10.13;;;10.40;99.90;;;;;;5064099;28;20052;-73
2022/11/06 04:40:36;;;;;;;17.30;9.38;;;10.40;99.90;;;;;;5064241;28;20045;-73
2022/11/06 04:43:06;;;;;;;16.05;10.32;;;10.50;99.90;;;;;;5060448;28;20049;-73
2022/11/06 04:48:13;;;;;;;17.20;9.98;;;10.50;99.90;;;;;;4465582;22;20041;-73
2022/11/06 04:50:44;;;;;;;16.00;9.68;;;10.40;99.90;;;;;;5020758;28;20188;-74
2022/11/06 04:53:11;;;;;;;16.08;9.80;;;10.50;99.90;;;;;;5023300;28;20052;-75
2022/11/06 04:55:47;;;;;;;13.18;9.75;;;10.40;99.90;;;;;;5026432;28;20412;-75
2022/11/06 04:58:13;;;;;;;13.52;9.90;;;10.50;99.90;;;;;;5024091;28;20045;-75
2022/11/06 05:00:43;;;;;;;13.85;9.25;;;10.40;99.90;;;;;;5021272;28;20048;-75
2022/11/06 05:03:09;;;;;;;15.10;9.48;;;10.50;99.90;;;;;;5023465;28;20623;-75
2022/11/06 05:05:34;;;;;;;18.90;10.18;;;10.50;99.90;;;;;;5024775;28;20049;-74
2022/11/06 05:08:00;;;;;;;16.75;9.80;;;10.50;99.90;;;;;;5027177;28;20045;-74
2022/11/06 05:10:26;;;;;;;12.27;8.65;;;10.50;99.90;;;;;;5003188;28;20065;-74
2022/11/06 05:12:51;;;;;;;16.00;9.88;;;10.50;99.90;;;;;;5006468;28;20056;-74
2022/11/06 05:15:17;;;;;;;15.80;10.60;;;10.50;99.90;;;;;;5023788;28;20045;-74
2022/11/06 05:17:42;;;;;;;16.73;10.45;;;10.50;99.90;;;;;;5024119;28;20493;-74
2022/11/06 05:20:08;;;;;;;16.65;10.48;;;10.40;99.90;;;;;;5023363;28;20508;-74
2022/11/06 05:22:59;;;;;;;14.98;10.55;;;10.50;99.90;;;;;;5024080;28;20053;-74
2022/11/06 05:25:25;;;;;;;13.68;9.48;;;10.50;99.90;;;;;;5022335;28;20053;-74
2022/11/06 05:27:50;;;;;;;18.10;10.52;;;10.50;99.90;;;;;;5026094;28;20389;-74
2022/11/06 05:30:16;;;;;;;18.45;11.00;;;10.50;99.90;;;;;;5007380;28;20060;-75
2022/11/06 05:32:42;;;;;;;14.43;9.57;;;10.50;99.90;;;;;;5003436;28;20054;-74
2022/11/06 05:35:08;;;;;;;14.75;10.32;;;10.40;99.90;;;;;;5024870;28;20338;-74
2022/11/06 05:37:33;;;;;;;18.55;10.55;;;10.50;99.90;;;;;;5028112;28;20087;-75
2022/11/06 05:39:59;;;;;;;13.40;9.70;;;10.40;99.90;;;;;;5020126;28;20041;-74
2022/11/06 05:42:25;;;;;;;15.77;10.73;;;10.50;99.90;;;;;;5026198;28;20403;-75
2022/11/06 05:44:53;;;;;;;16.58;10.02;;;10.50;99.90;;;;;;5022181;28;20056;-74
2022/11/06 05:47:19;;;;;;;15.73;10.25;;;10.50;99.90;;;;;;5020145;28;20783;-74
2022/11/06 05:49:45;;;;;;;16.13;9.93;;;10.40;99.90;;;;;;5004891;28;20046;-74
2022/11/06 05:52:10;;;;;;;18.67;10.88;;;10.40;99.90;;;;;;5025111;28;20412;-74
2022/11/06 05:54:36;;;;;;;17.33;10.63;;;10.40;99.90;;;;;;5007959;28;20060;-75
2022/11/06 05:57:02;;;;;;;18.85;11.00;;;10.40;99.90;;;;;;4997148;28;20038;-75
2022/11/06 05:59:27;;;;;;;19.67;12.80;;;10.40;99.90;;;;;;5026786;28;20041;-74
2022/11/06 06:01:53;;;;;;;20.42;10.65;;;10.40;99.90;;;;;;5019819;28;20042;-74
2022/11/06 06:04:19;;;;;;;20.10;11.82;;;10.40;99.90;;;;;;5025429;28;20080;-75
2022/11/06 06:06:45;;;;;;;16.45;11.32;;;10.40;99.90;;;;;;5030010;28;20045;-74
2022/11/06 06:09:10;;;;;;;20.73;11.63;;;10.40;99.90;;;;;;5010219;28;20042;-75
2022/11/06 06:11:36;;;;;;;17.25;11.68;;;10.40;99.90;;;;;;5004960;28;20128;-75
2022/11/06 06:14:02;;;;;;;15.98;11.60;;;10.40;99.90;;;;;;5009914;28;20037;-75
2022/11/06 06:16:27;;;;;;;19.65;11.80;;;10.40;99.90;;;;;;5026203;28;20087;-75
2022/11/06 06:18:53;;;;;;;18.27;12.07;;;10.40;99.90;;;;;;5009908;28;20433;-75
2022/11/06 06:21:19;;;;;;;16.70;12.10;;;10.30;99.90;;;;;;5025951;28;20524;-75
2022/11/06 06:23:46;;;;;;;20.27;13.20;;;10.40;99.90;;;;;;5025851;28;20045;-74
2022/11/06 06:26:11;;;;;;;19.83;12.60;;;10.30;99.90;;;;;;4990829;28;20037;-75
2022/11/06 06:28:37;;;;;;;18.25;12.40;;;10.30;99.90;;;;;;5030234;28;20049;-74
2022/11/06 06:31:04;;;;;;;21.02;12.63;;;10.30;99.90;;;;;;5020147;28;20042;-75
2022/11/06 06:33:30;;;;;;;22.15;13.57;;;10.30;99.90;;;;;;5029084;28;20370;-77
2022/11/06 06:35:56;;;;;;;21.98;13.63;;;10.20;99.90;;;;;;5024930;28;20049;-76
2022/11/06 06:38:22;;;;;;;20.40;12.93;;;10.20;99.90;;;;;;5007773;28;20125;-75
2022/11/06 06:40:47;;;;;;;21.67;13.25;;;10.30;99.90;;;;;;5026898;28;20448;-76
2022/11/06 06:43:13;;;;;;;22.75;14.20;;;10.20;99.90;;;;;;5012098;28;20045;-75
2022/11/06 06:45:39;;;;;;;24.00;13.55;;;10.20;99.90;;;;;;5009553;28;20085;-75
2022/11/06 06:48:05;;;;;;;20.02;12.88;;;10.10;99.90;;;;;;5026776;28;20072;-75
2022/11/06 06:50:31;;;;;;;23.90;12.70;;;10.10;99.90;;;;;;5006913;28;20049;-75
2022/11/06 06:52:57;;;;;;;19.25;12.18;;;10.10;99.90;;;;;;5008668;28;20496;-75
2022/11/06 06:55:26;;;;;;;21.58;11.93;;;10.10;99.90;;;;;;5002820;28;20041;-75
2022/11/06 06:57:58;;;;;;;21.95;11.43;;;10.10;99.90;;;;;;5023772;28;20092;-75
2022/11/06 07:00:24;;;;;;;19.63;11.52;;;10.00;99.90;;;;;;5003162;28;20476;-76
2022/11/06 07:02:50;;;;;;;22.15;12.10;;;10.00;99.90;;;;;;5024210;28;20045;-76
2022/11/06 07:05:16;;;;;;;24.67;12.38;;;10.00;99.90;;;;;;5001815;28;20511;-75
2022/11/06 07:07:42;;;;;;;18.00;11.07;;;10.00;99.90;;;;;;5008976;28;20120;-75
2022/11/06 07:10:08;;;;;;;22.30;11.55;;;10.00;99.90;;;;;;5001293;28;20113;-75
2022/11/06 07:12:34;;;;;;;19.65;10.57;;;10.00;99.90;;;;;;5026558;28;20665;-75
2022/11/06 07:14:59;;;;;;;21.67;11.63;;;10.00;99.90;;;;;;5019310;28;20034;-75
2022/11/06 07:17:26;;;;;;;21.52;11.77;;;10.00;99.90;;;;;;5028916;28;20052;-76
2022/11/06 07:19:51;;;;;;;19.95;12.63;;;10.00;99.90;;;;;;5010333;28;20060;-76
2022/11/06 07:22:17;;;;;;;22.17;12.20;;;10.00;99.90;;;;;;5026732;28;20484;-76
2022/11/06 07:24:42;;;;;;;23.20;11.18;;;10.00;99.90;;;;;;5004609;28;20061;-76
2022/11/06 07:27:08;;;;;;;22.88;10.75;;;10.00;99.90;;;;;;5001406;28;20511;-77
2022/11/06 07:29:34;;;;;;;17.58;10.50;;;10.00;99.90;;;;;;5003598;28;20046;-77
2022/11/06 07:32:06;;;;;;;18.15;9.73;;;10.00;99.90;;;;;;5000366;28;20053;-76
2022/11/06 07:34:33;;;;;;;16.63;9.65;;;10.00;99.90;;;;;;5024837;28;20287;-76
2022/11/06 07:36:58;;;;;;;20.70;9.43;;;10.00;99.90;;;;;;5008027;28;20046;-75
2022/11/06 07:39:24;;;;;;;16.20;9.35;;;10.00;99.90;;;;;;5019412;28;20033;-75
2022/11/06 07:41:53;;;;;;;17.65;9.95;;;10.00;99.90;;;;;;5023653;28;20626;-76
2022/11/06 07:44:18;;;;;;;18.20;9.15;;;10.00;99.90;;;;;;5008962;28;20070;-76
2022/11/06 07:46:44;;;;;;;19.02;9.77;;;10.00;99.90;;;;;;5006710;28;20057;-76
2022/11/06 07:49:10;;;;;;;17.23;8.35;;;10.00;99.90;;;;;;5024640;28;20046;-76
2022/11/06 07:51:35;;;;;;;20.35;7.97;;;10.00;99.90;;;;;;5029425;28;20048;-77
2022/11/06 07:54:01;;;;;;;16.70;8.13;;;10.00;99.90;;;;;;5015642;28;20725;-77
2022/11/06 07:56:27;;;;;;;16.95;8.25;;;10.00;99.90;;;;;;5033751;28;20101;-77
2022/11/06 07:58:52;;;;;;;15.57;7.55;;;10.00;99.90;;;;;;5003313;28;20211;-77
2022/11/06 08:01:18;;;;;;;17.63;7.70;;;10.00;99.90;;;;;;5017496;28;20489;-77
2022/11/06 08:03:44;;;;;;;18.38;7.90;;;10.00;99.90;;;;;;5008918;28;20134;-76
2022/11/06 08:06:10;;;;;;;14.02;7.32;;;10.00;99.90;;;;;;5000338;28;20052;-76
2022/11/06 08:08:36;;;;;;;19.35;6.97;;;10.00;99.90;;;;;;5020171;28;20038;-75
2022/11/06 08:11:04;;;;;;;15.35;6.75;;;10.00;99.90;;;;;;4996645;28;20147;-76
2022/11/06 08:13:30;;;;;;;16.83;6.80;;;10.10;99.90;;;;;;5021015;28;20623;-75
2022/11/06 08:15:55;;;;;;;16.85;6.50;;;10.00;99.90;;;;;;5019834;28;20128;-76
2022/11/06 08:18:21;;;;;;;12.55;6.45;;;10.00;99.90;;;;;;5008807;28;20424;-76
2022/11/06 08:20:47;;;;;;;19.70;6.57;;;10.00;99.90;;;;;;5023127;28;20065;-76
2022/11/06 08:23:12;;;;;;;17.50;6.55;;;10.10;99.90;;;;;;5012786;28;20053;-75
2022/11/06 08:25:39;;;;;;;12.65;6.20;;;10.10;99.90;;;;;;5026991;28;20481;-77
2022/11/06 08:28:18;;;;;;;12.10;5.35;;;10.10;99.90;;;;;;5024620;28;20048;-76
2022/11/06 08:30:46;;;;;;;20.95;6.85;;;10.10;99.90;;;;;;5019938;28;20041;-75
2022/11/06 08:33:12;;;;;;;20.65;7.13;;;10.10;99.90;;;;;;5023647;28;20393;-75
2022/11/06 08:35:38;;;;;;;13.13;6.03;;;10.10;99.90;;;;;;5007356;28;20221;-75
2022/11/06 08:38:03;;;;;;;13.82;6.28;;;10.20;99.90;;;;;;5008327;28;20045;-75
2022/11/06 08:40:29;;;;;;;19.10;6.40;;;10.30;99.90;;;;;;5005187;28;20111;-74
2022/11/06 08:43:03;;;;;;;13.07;5.25;;;10.20;99.90;;;;;;5025174;28;20350;-75
2022/11/06 08:45:29;;;;;;;10.38;4.85;;;10.20;99.90;;;;;;5008815;28;20045;-76
2022/11/06 08:47:59;;;;;;;14.00;4.85;;;10.30;99.90;;;;;;5005058;28;20049;-76
2022/11/06 08:50:24;;;;;;;13.27;5.53;;;10.40;99.90;;;;;;5024848;28;20033;-75
2022/11/06 08:52:50;;;;;;;13.50;4.63;;;10.30;99.90;;;;;;5024281;28;20420;-75
2022/11/06 08:55:19;;;;;;;8.52;4.30;;;10.40;99.90;;;;;;5008085;28;20092;-75
2022/11/06 08:57:48;;;;;;;11.20;4.82;;;10.30;99.90;;;;;;5028506;28;20072;-74
2022/11/06 09:00:17;;;;;;;18.05;4.70;;;10.30;99.90;;;;;;5020584;28;20087;-75
2022/11/06 09:02:42;;;;;;;17.92;4.93;;;10.40;99.90;;;;;;5023018;28;20128;-76
2022/11/06 09:05:08;;;;;;;15.13;5.22;;;10.30;99.90;;;;;;5004024;28;20137;-75
2022/11/06 09:07:34;;;;;;;15.77;5.03;;;10.30;99.90;;;;;;5016655;28;20047;-76
2022/11/06 09:09:59;;;;;;;12.10;4.78;;;10.30;99.90;;;;;;5026345;28;20037;-75
2022/11/06 09:12:25;;;;;;;13.02;5.22;;;10.40;99.90;;;;;;5024554;28;20095;-73
2022/11/06 09:14:53;;;;;;;14.75;5.00;;;10.40;99.90;;;;;;5025077;28;20041;-72
2022/11/06 09:17:22;;;;;;;14.25;5.30;;;10.30;99.90;;;;;;5026721;28;20133;-74
2022/11/06 09:19:49;;;;;;;16.05;5.47;;;10.20;99.90;;;;;;5020068;28;20076;-73
2022/11/06 09:22:15;;;;;;;11.05;5.70;;;10.30;99.90;;;;;;5022721;28;20095;-74
2022/11/06 09:24:41;;;;;;;13.65;5.85;;;10.30;99.90;;;;;;5023470;28;20558;-76
2022/11/06 09:27:06;;;;;;;14.90;5.50;;;10.30;99.90;;;;;;5006157;28;20060;-76
2022/11/06 09:29:32;;;;;;;15.23;5.63;;;10.30;99.90;;;;;;5023869;28;20099;-77
2022/11/06 09:31:58;;;;;;;17.05;5.55;;;10.20;99.90;;;;;;5008799;28;20060;-75
2022/11/06 09:34:26;;;;;;;13.20;6.07;;;10.20;99.90;;;;;;5022692;28;20034;-75
2022/11/06 09:36:52;;;;;;;16.35;7.07;;;10.20;99.90;;;;;;5026362;28;20242;-75
2022/11/06 09:39:17;;;;;;;14.68;5.80;;;10.20;99.90;;;;;;5002615;28;20240;-76
2022/11/06 09:41:50;;;;;;;10.10;5.45;;;10.20;99.90;;;;;;5024594;28;20055;-76
2022/11/06 09:44:25;;;;;;;11.13;5.65;;;10.20;99.90;;;;;;4999617;28;20058;-75
2022/11/06 09:46:55;;;;;;;11.93;5.15;;;10.20;99.90;;;;;;5006553;28;20065;-74
2022/11/06 09:49:37;;;;;;;15.48;5.82;;;10.20;99.90;;;;;;5022286;28;20041;-74
2022/11/06 09:52:21;;;;;;;13.13;5.05;;;10.20;99.90;;;;;;5020222;28;20114;-74
2022/11/06 09:55:13;;;;;;;17.17;5.65;;;10.30;99.90;;;;;;4998805;28;20046;-75
2022/11/06 09:57:45;;;;;;;11.95;5.60;;;10.30;99.90;;;;;;5017881;28;20067;-76
2022/11/06 10:00:13;;;;;;;19.90;5.88;;;10.30;99.90;;;;;;5016446;28;20045;-76
2022/11/06 10:02:44;;;;;;;13.18;5.10;;;10.30;99.90;;;;;;5017651;28;20041;-77
2022/11/06 10:05:10;;;;;;;14.50;5.35;;;10.20;99.90;;;;;;5018251;28;20041;-77
2022/11/06 10:07:39;;;;;;;15.30;4.63;;;10.30;99.90;;;;;;5022557;28;20136;-77
2022/11/06 10:10:10;;;;;;;12.93;5.05;;;10.40;99.90;;;;;;5005596;28;20052;-77
2022/11/06 10:13:00;;;;;;;13.80;4.88;;;10.30;99.90;;;;;;5018904;28;20075;-76
2022/11/06 10:15:50;;;;;;;9.50;4.45;;;10.30;99.90;;;;;;5013963;28;20052;-76
2022/11/06 10:18:48;;;;;;;11.10;5.38;;;10.30;99.90;;;;;;5024157;28;20049;-76
2022/11/06 10:21:22;;;;;;;13.82;4.90;;;10.40;99.90;;;;;;4969549;28;20065;-75
2022/11/06 10:23:57;;;;;;;11.73;4.93;;;10.30;99.90;;;;;;5005683;28;20038;-75
2022/11/06 10:26:44;;;;;;;11.32;4.18;;;10.40;99.90;;;;;;4998680;28;20095;-73
2022/11/06 10:29:10;;;;;;;17.60;5.28;;;10.40;99.90;;;;;;5018661;28;20045;-76
2022/11/06 10:31:42;;;;;;;9.43;4.28;;;10.40;99.90;;;;;;5022163;28;20034;-75
2022/11/06 10:34:15;;;;;;;13.30;4.22;;;10.40;99.90;;;;;;5021973;28;20052;-75
2022/11/06 10:36:44;;;;;;;13.25;5.20;;;10.50;99.90;;;;;;5008276;28;20061;-74
2022/11/06 10:39:19;;;;;;;9.75;4.70;;;10.50;99.90;;;;;;5003542;28;20046;-77
2022/11/06 10:41:56;;;;;;;14.07;4.57;;;10.50;99.90;;;;;;5022947;28;20045;-75
2022/11/06 10:44:40;;;;;;;12.13;5.93;;;10.40;99.90;;;;;;5005626;28;20045;-76
2022/11/06 10:47:10;;;;;;;17.10;5.22;;;10.40;99.90;;;;;;5024036;28;20038;-75
2022/11/06 10:49:46;;;;;;;15.02;5.65;;;10.40;99.90;;;;;;5022966;28;20088;-75
2022/11/06 10:52:37;;;;;;;11.70;4.43;;;10.50;99.90;;;;;;5018062;28;20072;-75
2022/11/06 10:55:06;;;;;;;9.40;4.60;;;10.50;99.90;;;;;;4999391;28;20057;-74
2022/11/06 10:57:37;;;;;;;14.40;5.13;;;10.60;99.90;;;;;;5021436;28;20050;-75
2022/11/06 11:00:04;;;;;;;15.32;4.93;;;10.50;99.90;;;;;;5007798;28;20064;-75
2022/11/06 11:02:35;;;;;;;9.82;4.95;;;10.50;99.90;;;;;;5005169;28;20072;-75
2022/11/06 11:05:09;;;;;;;13.05;4.90;;;10.60;99.90;;;;;;5023731;28;20384;-74
2022/11/06 11:07:35;;;;;;;10.73;5.13;;;10.60;99.90;;;;;;5026434;28;20485;-75
2022/11/06 11:10:23;;;;;;;12.00;5.10;;;10.60;99.90;;;;;;5025594;28;20140;-74
2022/11/06 11:12:55;;;;;;;9.85;5.03;;;10.70;99.90;;;;;;5021359;28;20567;-75
2022/11/06 11:15:26;;;;;;;13.85;5.25;;;10.70;99.90;;;;;;5024592;28;22263;-75
2022/11/06 11:18:31;;;;;;;9.02;5.50;;;10.70;99.90;;;;;;5027875;28;20045;-75
2022/11/06 11:21:16;;;;;;;11.68;5.40;;;10.80;99.90;;;;;;4966152;28;20786;-75
2022/11/06 11:23:42;;;;;;;12.73;5.20;;;10.80;99.90;;;;;;5003491;28;20041;-75
2022/11/06 11:26:26;;;;;;;13.18;5.00;;;10.80;99.90;;;;;;5006816;28;20124;-74
2022/11/06 11:28:57;;;;;;;11.20;4.85;;;10.90;99.90;;;;;;5025391;28;20206;-75
2022/11/06 11:31:32;;;;;;;11.52;5.13;;;10.90;99.90;;;;;;5019638;28;20566;-75
2022/11/06 11:34:05;;;;;;;10.57;4.72;;;10.90;99.90;;;;;;5006917;28;20091;-75
2022/11/06 11:36:52;;;;;;;14.23;5.47;;;10.90;99.90;;;;;;5019569;28;20069;-75
2022/11/06 11:39:24;;;;;;;11.07;4.88;;;10.90;99.90;;;;;;4993721;28;20133;-74
2022/11/06 11:41:49;;;;;;;10.88;4.50;;;10.90;99.90;;;;;;5027107;28;20049;-73
2022/11/06 11:44:17;;;;;;;12.90;4.45;;;11.10;99.90;;;;;;5028973;28;20059;-73
2022/11/06 11:46:53;;;;;;;10.82;4.28;;;11.00;99.90;;;;;;5026060;28;20516;-74
2022/11/06 11:49:36;;;;;;;13.50;4.97;;;11.10;99.90;;;;;;5022904;28;20156;-75
2022/11/06 11:52:04;;;;;;;14.15;4.85;;;11.10;99.90;;;;;;5020177;28;20041;-74
2022/11/06 11:54:34;;;;;;;21.55;6.00;;;11.10;99.90;;;;;;5019155;28;20500;-74
2022/11/06 11:57:16;;;;;;;14.05;5.43;;;11.20;99.90;;;;;;5025135;28;20053;-74
2022/11/06 11:59:42;;;;;;;16.27;4.63;;;11.20;99.90;;;;;;5020064;28;20568;-73
2022/11/06 12:02:22;;;;;;;13.18;4.70;;;11.30;99.90;;;;;;5004772;28;20049;-74
2022/11/06 12:05:21;;;;;;;14.02;5.03;;;11.40;99.90;;;;;;5008960;28;20057;-74
2022/11/06 12:07:52;;;;;;;11.18;3.75;;;11.30;99.90;;;;;;5021140;28;20046;-75
2022/11/06 12:10:23;;;;;;;13.25;3.95;;;11.40;99.90;;;;;;5023345;28;20401;-73
2022/11/06 12:12:50;;;;;;;10.60;4.38;;;11.40;99.90;;;;;;5019177;28;20049;-75
2022/11/06 12:15:17;;;;;;;11.00;4.78;;;11.40;99.90;;;;;;5002775;28;20061;-73
2022/11/06 12:17:45;;;;;;;9.85;4.88;;;11.50;99.90;;;;;;5020094;28;20057;-76
2022/11/06 12:20:18;;;;;;;17.20;6.00;;;11.50;99.90;;;;;;5020623;28;20083;-75
2022/11/06 12:22:47;;;;;;;12.63;4.53;;;11.50;99.90;;;;;;5019859;28;20072;-75
2022/11/06 12:25:21;;;;;;;17.92;4.30;;;11.50;99.90;;;;;;5015246;28;20084;-75
2022/11/06 12:27:56;;;;;;;7.20;2.90;;;11.60;99.90;;;;;;5023662;28;20119;-74
2022/11/06 12:30:22;;;;;;;8.32;3.60;;;11.60;99.90;;;;;;5001519;28;20081;-75
2022/11/06 12:33:10;;;;;;;10.10;3.65;;;11.60;99.90;;;;;;5023464;28;20116;-73
2022/11/06 12:35:41;;;;;;;8.13;3.05;;;11.60;99.90;;;;;;5019312;28;20057;-75
2022/11/06 12:38:19;;;;;;;6.55;2.83;;;11.60;99.90;;;;;;5006424;28;20045;-74
2022/11/06 12:40:56;;;;;;;10.95;2.70;;;11.70;99.90;;;;;;5013800;28;20053;-73
2022/11/06 12:43:46;;;;;;;8.18;2.88;;;11.70;99.90;;;;;;5022497;28;20048;-71
2022/11/06 12:46:36;;;;;;;7.22;2.67;;;11.60;99.90;;;;;;5020641;28;20049;-71
2022/11/06 12:49:02;;;;;;;9.93;2.85;;;11.60;99.90;;;;;;5024555;28;20046;-71
2022/11/06 12:51:50;;;;;;;7.63;2.58;;;11.60;99.90;;;;;;5022359;28;20402;-71
2022/11/06 12:54:54;;;;;;;11.13;2.60;;;11.60;99.90;;;;;;5024260;28;20092;-71
2022/11/06 12:57:19;;;;;;;7.10;2.92;;;11.60;99.90;;;;;;5017524;28;20046;-72
2022/11/06 13:00:17;;;;;;;11.13;3.08;;;11.60;99.90;;;;;;5024252;28;20103;-71
2022/11/06 13:03:11;;;;;;;8.60;3.03;;;11.60;99.90;;;;;;5017975;28;20053;-71
2022/11/06 13:06:10;;;;;;;8.60;2.63;;;11.60;99.90;;;;;;5024279;28;20513;-70
2022/11/06 13:08:44;;;;;;;8.70;3.40;;;11.50;99.90;;;;;;5024895;28;20412;-71
2022/11/06 13:11:30;;;;;;;10.35;3.38;;;11.50;99.90;;;;;;5013290;28;20068;-71